createdAt,value
2024-05-09T00:00:39.086Z,102130.28
2024-05-09T00:03:08.613Z,102106.63
2024-05-09T00:05:36.821Z,102105.69
2024-05-09T00:08:04.326Z,102109.69
2024-05-09T00:10:36.374Z,102108.16
2024-05-09T00:13:05.877Z,102118.44
2024-05-09T00:15:33.609Z,102099.75
2024-05-09T00:18:00.679Z,102103.47
2024-05-09T00:20:35.974Z,102102.25
2024-05-09T00:23:07.571Z,102107.22
2024-05-09T00:25:34.866Z,102120.38
2024-05-09T00:28:01.793Z,102095.75
2024-05-09T00:30:34.048Z,102090.44
2024-05-09T00:33:04.389Z,102110.53
2024-05-09T00:35:31.782Z,102094.38
2024-05-09T00:37:58.427Z,102105.56
2024-05-09T00:40:35.324Z,102096.06
2024-05-09T00:43:06.449Z,102105.09
2024-05-09T00:45:34.407Z,102100.03
2024-05-09T00:48:05.093Z,102087.50
2024-05-09T00:50:36.842Z,102089.25
2024-05-09T00:53:06.748Z,102091.19
2024-05-09T00:55:37.262Z,102093.13
2024-05-09T00:58:06.018Z,102101.31
2024-05-09T01:00:38.879Z,102096.38
2024-05-09T01:03:09.044Z,102099.72
2024-05-09T01:05:39.075Z,102087.28
2024-05-09T01:08:06.594Z,102112.47
2024-05-09T01:10:36.608Z,102101.44
2024-05-09T01:13:04.741Z,102115.41
2024-05-09T01:15:31.523Z,102100.06
2024-05-09T01:18:00.786Z,102113.31
2024-05-09T01:20:37.239Z,102106.88
2024-05-09T01:23:09.724Z,102105.63
2024-05-09T01:25:36.689Z,102116.19
2024-05-09T01:28:03.784Z,102103.56
2024-05-09T01:30:34.979Z,102114.28
2024-05-09T01:33:04.655Z,102112.00
2024-05-09T01:35:31.817Z,102110.25
2024-05-09T01:37:58.568Z,102117.22
2024-05-09T01:40:33.921Z,102111.41
2024-05-09T01:43:04.961Z,102097.78
2024-05-09T01:45:31.511Z,102119.13
2024-05-09T01:47:58.684Z,102102.47
2024-05-09T01:50:36.718Z,102111.81
2024-05-09T01:53:07.021Z,102101.22
2024-05-09T01:55:33.708Z,102123.03
2024-05-09T01:58:00.326Z,102100.38
2024-05-09T02:00:37.693Z,102082.66
2024-05-09T02:03:12.059Z,102110.44
2024-05-09T02:05:42.315Z,102101.72
2024-05-09T02:08:13.902Z,102112.41
2024-05-09T02:10:40.613Z,102095.81
2024-05-09T02:13:09.835Z,102113.06
2024-05-09T02:15:36.436Z,102107.59
2024-05-09T02:18:03.254Z,102111.59
2024-05-09T02:20:35.918Z,102100.03
2024-05-09T02:23:05.281Z,102110.47
2024-05-09T02:25:32.586Z,102105.31
2024-05-09T02:28:02.479Z,102100.31
2024-05-09T02:30:38.345Z,102108.88
2024-05-09T02:46:43.351Z,102100.81
2024-05-09T02:49:11.973Z,102101.75
2024-05-09T02:51:38.806Z,102080.06
2024-05-09T02:54:07.706Z,102076.19
2024-05-09T02:56:34.409Z,102094.94
2024-05-09T02:59:01.160Z,102096.66
2024-05-09T03:01:27.895Z,102087.88
2024-05-09T03:03:54.629Z,102103.91
2024-05-09T03:06:21.435Z,102097.72
2024-05-09T03:08:48.121Z,102100.88
2024-05-09T03:11:22.664Z,102095.31
2024-05-09T03:13:53.188Z,102105.00
2024-05-09T03:16:26.302Z,102091.28
2024-05-09T03:18:54.760Z,102083.59
2024-05-09T03:21:21.976Z,102094.47
2024-05-09T03:23:48.719Z,102099.81
2024-05-09T03:26:16.246Z,102104.00
2024-05-09T03:28:43.741Z,102094.00
2024-05-09T03:31:10.759Z,102109.19
2024-05-09T03:33:40.828Z,102087.34
2024-05-09T03:36:10.526Z,102102.13
2024-05-09T03:38:38.928Z,102088.25
2024-05-09T03:41:05.748Z,102096.88
2024-05-09T03:43:32.754Z,102102.06
2024-05-09T03:45:59.636Z,102090.59
2024-05-09T03:48:26.924Z,102090.97
2024-05-09T03:50:54.062Z,102094.44
2024-05-09T03:53:20.982Z,102091.97
2024-05-09T03:55:47.944Z,102091.47
2024-05-09T03:58:16.208Z,102102.19
2024-05-09T04:00:46.240Z,102085.25
2024-05-09T04:03:13.650Z,102113.41
2024-05-09T04:05:45.990Z,102125.03
2024-05-09T04:08:18.825Z,102099.66
2024-05-09T04:10:48.486Z,102119.25
2024-05-09T04:13:21.587Z,102100.28
2024-05-09T04:15:50.392Z,102110.69
2024-05-09T04:18:18.284Z,102091.09
2024-05-09T04:20:48.419Z,102090.59
2024-05-09T04:23:17.213Z,102103.72
2024-05-09T04:25:47.805Z,102103.97
2024-05-09T04:28:14.832Z,102078.94
2024-05-09T04:30:42.537Z,102104.59
2024-05-09T04:33:12.461Z,102088.28
2024-05-09T04:35:44.582Z,102096.38
2024-05-09T04:38:22.129Z,102117.69
2024-05-09T04:40:51.556Z,102120.19
2024-05-09T04:43:21.813Z,102098.38
2024-05-09T04:45:51.824Z,102097.75
2024-05-09T04:48:21.915Z,102111.56
2024-05-09T04:50:49.125Z,102110.66
2024-05-09T04:53:18.776Z,102123.75
2024-05-09T04:55:45.859Z,102107.13
2024-05-09T04:58:12.991Z,102127.31
2024-05-09T05:00:41.147Z,102092.66
2024-05-09T05:03:12.878Z,102126.75
2024-05-09T05:05:42.087Z,102117.00
2024-05-09T05:08:12.883Z,102113.75
2024-05-09T05:10:47.171Z,102123.81
2024-05-09T05:13:23.829Z,102110.19
2024-05-09T05:15:58.461Z,102103.97
2024-05-09T05:18:28.083Z,102131.03
2024-05-09T05:20:56.678Z,102103.59
2024-05-09T05:23:24.610Z,102114.06
2024-05-09T05:28:38.867Z,102109.91
2024-05-09T05:31:05.676Z,102106.34
2024-05-09T05:33:32.415Z,102133.81
2024-05-09T05:35:59.425Z,102130.34
2024-05-09T05:38:28.327Z,102125.66
2024-05-09T05:40:56.040Z,102127.63
2024-05-09T05:43:23.042Z,102105.22
2024-05-09T05:45:49.711Z,102125.81
2024-05-09T05:48:17.760Z,102111.72
2024-05-09T05:50:45.324Z,102110.50
2024-05-09T05:53:12.270Z,102118.25
2024-05-09T05:55:40.919Z,102127.94
2024-05-09T05:58:11.897Z,102129.19
2024-05-09T06:00:41.702Z,102122.50
2024-05-09T06:03:10.505Z,102124.16
2024-05-09T06:05:40.498Z,102116.16
2024-05-09T06:08:08.026Z,102128.81
2024-05-09T06:10:40.022Z,102107.97
2024-05-09T06:13:13.340Z,102100.59
2024-05-09T06:15:56.946Z,102099.88
2024-05-09T06:18:30.247Z,102127.94
2024-05-09T06:21:02.193Z,102133.13
2024-05-09T06:23:37.000Z,102115.00
2024-05-09T06:27:07.779Z,102092.19
2024-05-09T06:29:42.320Z,102113.25
2024-05-09T06:32:16.075Z,102093.84
2024-05-09T06:35:27.412Z,102097.25
2024-05-09T06:38:07.687Z,102094.47
2024-05-09T06:41:01.256Z,102110.84
2024-05-09T06:43:42.301Z,102096.78
2024-05-09T06:46:30.703Z,102113.88
2024-05-09T06:49:08.685Z,102115.72
2024-05-09T06:52:36.575Z,102108.81
2024-05-09T06:55:03.530Z,102104.50
2024-05-09T06:57:31.021Z,102109.25
2024-05-09T07:00:00.771Z,102095.19
2024-05-09T07:02:28.133Z,102111.50
2024-05-09T07:04:55.096Z,102104.69
2024-05-09T07:07:21.758Z,102101.72
2024-05-09T07:10:21.639Z,102094.84
2024-05-09T07:12:52.338Z,102110.69
2024-05-09T07:15:18.954Z,102107.78
2024-05-09T07:17:45.666Z,102098.06
2024-05-09T07:20:19.874Z,102105.19
2024-05-09T07:22:53.660Z,102110.38
2024-05-09T07:25:20.245Z,102107.28
2024-05-09T07:27:46.850Z,102109.25
2024-05-09T07:30:19.975Z,102097.47
2024-05-09T07:32:50.248Z,102101.00
2024-05-09T07:35:16.941Z,102104.56
2024-05-09T07:37:43.614Z,102113.56
2024-05-09T07:42:38.625Z,102104.34
2024-05-09T07:45:21.555Z,102104.97
2024-05-09T07:49:35.268Z,102113.19
2024-05-09T07:53:36.908Z,102094.25
2024-05-09T07:55:56.809Z,102088.06
2024-05-09T07:58:29.204Z,102086.00
2024-05-09T08:00:55.981Z,102088.75
2024-05-09T08:03:23.264Z,102093.19
2024-05-09T08:05:51.834Z,102090.38
2024-05-09T08:08:18.534Z,102091.06
2024-05-09T08:10:45.292Z,102080.69
2024-05-09T08:13:12.031Z,102075.88
2024-05-09T08:15:39.165Z,102096.06
2024-05-09T08:18:32.340Z,102075.06
2024-05-09T08:20:59.288Z,102081.81
2024-05-09T08:23:26.178Z,102097.66
2024-05-09T08:25:55.774Z,102067.31
2024-05-09T08:28:22.450Z,102091.75
2024-05-09T08:30:51.199Z,102066.16
2024-05-09T08:33:18.158Z,102046.50
2024-05-09T08:35:45.045Z,102074.38
2024-05-09T08:38:20.911Z,102075.84
2024-05-09T08:40:48.802Z,102065.75
2024-05-09T08:43:17.406Z,102069.72
2024-05-09T08:45:49.884Z,102076.00
2024-05-09T08:48:19.756Z,102074.84
2024-05-09T08:50:53.089Z,102077.94
2024-05-09T08:53:19.892Z,102079.09
2024-05-09T08:55:46.730Z,102079.97
2024-05-09T08:58:20.478Z,102070.75
2024-05-09T09:00:48.435Z,102068.19
2024-05-09T09:03:18.552Z,102076.44
2024-05-09T09:05:54.619Z,102074.34
2024-05-09T09:08:21.324Z,102073.94
2024-05-09T09:10:49.115Z,102068.16
2024-05-09T09:13:28.089Z,102065.72
2024-05-09T09:15:59.721Z,102071.63
2024-05-09T09:18:35.883Z,102065.09
2024-05-09T09:21:03.430Z,102054.88
2024-05-09T09:23:30.652Z,102039.47
2024-05-09T09:26:00.851Z,102074.19
2024-05-09T09:28:27.607Z,102058.41
2024-05-09T09:31:00.884Z,102067.22
2024-05-09T09:33:31.334Z,102055.00
2024-05-09T09:35:58.280Z,102063.34
2024-05-09T09:38:26.528Z,102069.63
2024-05-09T09:40:53.156Z,102037.94
2024-05-09T09:43:21.678Z,102030.28
2024-05-09T09:45:51.531Z,102069.88
2024-05-09T09:48:21.378Z,102068.53
2024-05-09T09:50:48.763Z,102065.31
2024-05-09T09:53:16.136Z,102049.50
2024-05-09T09:55:43.465Z,102041.94
2024-05-09T09:58:13.450Z,102063.56
2024-05-09T10:00:41.839Z,102061.28
2024-05-09T10:03:08.685Z,102054.41
2024-05-09T10:05:36.310Z,102054.69
2024-05-09T10:08:08.032Z,102047.91
2024-05-09T10:10:36.075Z,102050.47
2024-05-09T10:13:04.552Z,102053.44
2024-05-09T10:15:52.632Z,102044.44
2024-05-09T10:18:28.113Z,102059.19
2024-05-09T10:20:57.047Z,102044.81
2024-05-09T10:23:24.782Z,102046.75
2024-05-09T10:26:01.847Z,102048.75
2024-05-09T10:28:30.170Z,102032.03
2024-05-09T10:31:12.983Z,102038.75
2024-05-09T10:33:49.582Z,102048.13
2024-05-09T10:36:24.388Z,102035.91
2024-05-09T10:38:54.435Z,102031.41
2024-05-09T10:41:22.636Z,102031.63
2024-05-09T10:43:50.149Z,102025.75
2024-05-09T10:46:19.042Z,102033.59
2024-05-09T10:48:47.624Z,102024.78
2024-05-09T10:51:14.654Z,102034.88
2024-05-09T10:53:42.756Z,102012.28
2024-05-09T10:56:10.004Z,102013.47
2024-05-09T10:58:37.079Z,102008.25
2024-05-09T11:01:07.002Z,102018.34
2024-05-09T11:03:35.510Z,102004.44
2024-05-09T11:06:02.872Z,102013.47
2024-05-09T11:08:31.842Z,102002.03
2024-05-09T11:11:02.279Z,101993.09
2024-05-09T11:13:33.971Z,101992.47
2024-05-09T11:16:01.610Z,101986.09
2024-05-09T11:18:33.819Z,101995.53
2024-05-09T11:21:03.545Z,101994.09
2024-05-09T11:23:30.786Z,101985.28
2024-05-09T11:25:58.631Z,101992.44
2024-05-09T11:28:28.295Z,101987.53
2024-05-09T11:31:06.455Z,101982.34
2024-05-09T11:34:02.216Z,101972.47
2024-05-09T11:36:28.856Z,101971.13
2024-05-09T11:38:55.499Z,101977.44
2024-05-09T11:41:22.142Z,101962.47
2024-05-09T11:43:48.759Z,101961.72
2024-05-09T11:46:15.507Z,101973.59
2024-05-09T11:48:42.660Z,101975.22
2024-05-09T11:51:09.331Z,101958.94
2024-05-09T11:53:36.723Z,101962.63
2024-05-09T11:56:06.038Z,101965.69
2024-05-09T11:58:34.751Z,101952.28
2024-05-09T12:01:02.249Z,101945.88
2024-05-09T12:03:29.339Z,101953.94
2024-05-09T12:05:56.369Z,101944.75
2024-05-09T12:08:23.232Z,101951.81
2024-05-09T12:10:50.004Z,101944.56
2024-05-09T12:17:50.692Z,101912.66
2024-05-09T12:21:59.904Z,101938.69
2024-05-09T12:24:24.809Z,101925.00
2024-05-09T12:34:01.192Z,101913.78
2024-05-09T12:36:28.660Z,101928.16
2024-05-09T12:38:55.505Z,101928.56
2024-05-09T12:41:24.553Z,101914.03
2024-05-09T12:43:51.150Z,101906.84
2024-05-09T12:46:20.499Z,101910.59
2024-05-09T12:48:47.381Z,101909.06
2024-05-09T12:51:14.093Z,101893.50
2024-05-09T12:53:40.649Z,101912.66
2024-05-09T12:56:09.387Z,101890.22
2024-05-09T12:58:36.633Z,101896.94
2024-05-09T13:01:03.489Z,101899.09
2024-05-09T13:03:30.313Z,101901.22
2024-05-09T13:05:57.347Z,101894.66
2024-05-09T13:08:24.230Z,101862.47
2024-05-09T13:10:51.281Z,101879.19
2024-05-09T13:13:18.109Z,101872.13
2024-05-09T13:15:44.982Z,101861.34
2024-05-09T13:18:11.837Z,101874.03
2024-05-09T13:20:38.486Z,101864.84
2024-05-09T13:23:06.734Z,101874.56
2024-05-09T13:25:35.115Z,101870.03
2024-05-09T13:28:02.470Z,101833.56
2024-05-09T13:30:38.095Z,101852.41
2024-05-09T13:33:08.758Z,101840.47
2024-05-09T13:35:36.216Z,101847.28
2024-05-09T13:38:03.979Z,101829.59
2024-05-09T13:40:40.237Z,101830.09
2024-05-09T13:43:07.125Z,101840.06
2024-05-09T13:45:39.718Z,101839.16
2024-05-09T13:48:07.191Z,101836.72
2024-05-09T13:50:36.281Z,101839.63
2024-05-09T13:53:11.070Z,101837.75
2024-05-09T13:55:38.808Z,101833.22
2024-05-09T13:58:06.483Z,101829.38
2024-05-09T14:00:43.894Z,101828.03
2024-05-09T14:03:16.509Z,101835.50
2024-05-09T14:05:44.516Z,101806.66
2024-05-09T14:08:11.966Z,101834.03
2024-05-09T14:10:44.543Z,101832.06
2024-05-09T14:13:11.884Z,101820.25
2024-05-09T14:15:38.653Z,101827.72
2024-05-09T14:18:13.113Z,101821.00
2024-05-09T14:20:43.732Z,101810.34
2024-05-09T14:26:10.581Z,101799.94
2024-05-09T14:29:27.003Z,101792.66
2024-05-09T14:31:53.809Z,101778.75
2024-05-09T14:34:20.823Z,101789.81
2024-05-09T14:36:47.611Z,101796.66
2024-05-09T14:39:14.276Z,101803.91
2024-05-09T14:41:41.066Z,101794.41
2024-05-09T14:45:02.513Z,101788.59
2024-05-09T14:47:59.595Z,101783.91
2024-05-09T14:50:34.700Z,101769.13
2024-05-09T14:53:07.817Z,101763.09
2024-05-09T14:55:37.455Z,101780.88
2024-05-09T14:58:11.964Z,101766.53
2024-05-09T15:00:45.939Z,101765.25
2024-05-09T15:03:16.953Z,101765.13
2024-05-09T15:05:44.156Z,101762.94
2024-05-09T15:08:10.986Z,101773.72
2024-05-09T15:10:41.449Z,101782.03
2024-05-09T15:13:09.842Z,101768.69
2024-05-09T15:15:38.183Z,101773.25
2024-05-09T15:18:06.194Z,101773.88
2024-05-09T15:20:36.194Z,101756.97
2024-05-09T15:23:05.511Z,101765.81
2024-05-09T15:25:33.775Z,101752.66
2024-05-09T15:28:00.749Z,101759.81
2024-05-09T15:30:31.815Z,101760.97
2024-05-09T15:33:01.421Z,101759.84
2024-05-09T15:35:28.283Z,101767.03
2024-05-09T15:37:55.086Z,101757.94
2024-05-09T15:40:31.036Z,101754.28
2024-05-09T15:43:05.387Z,101747.81
2024-05-09T15:45:32.382Z,101743.53
2024-05-09T15:47:59.560Z,101747.25
2024-05-09T15:50:36.196Z,101746.66
2024-05-09T15:53:07.022Z,101746.56
2024-05-09T15:55:34.848Z,101747.28
2024-05-09T15:58:06.194Z,101753.22
2024-05-09T16:00:38.562Z,101739.44
2024-05-09T16:03:13.252Z,101748.84
2024-05-09T16:05:41.491Z,101747.22
2024-05-09T16:08:08.686Z,101739.25
2024-05-09T16:10:37.645Z,101749.63
2024-05-09T16:13:05.384Z,101748.13
2024-05-09T16:15:32.301Z,101739.97
2024-05-09T16:17:59.897Z,101736.91
2024-05-09T16:20:34.968Z,101739.38
2024-05-09T16:23:07.275Z,101745.16
2024-05-09T16:25:34.064Z,101738.16
2024-05-09T16:28:00.890Z,101748.88
2024-05-09T16:30:34.093Z,101741.06
2024-05-09T16:33:05.831Z,101745.03
2024-05-09T16:35:33.021Z,101745.31
2024-05-09T16:38:02.248Z,101740.63
2024-05-09T16:40:36.481Z,101724.91
2024-05-09T16:43:06.983Z,101746.75
2024-05-09T16:45:34.083Z,101741.63
2024-05-09T16:48:04.763Z,101745.34
2024-05-09T16:50:34.275Z,101737.03
2024-05-09T16:53:03.748Z,101747.03
2024-05-09T16:55:30.728Z,101753.31
2024-05-09T16:57:58.061Z,101743.00
2024-05-09T17:00:38.124Z,101745.38
2024-05-09T17:03:09.887Z,101739.94
2024-05-09T17:05:38.538Z,101747.28
2024-05-09T17:08:06.151Z,101742.97
2024-05-09T17:10:34.914Z,101735.31
2024-05-09T17:13:04.417Z,101734.72
2024-05-09T17:15:32.661Z,101743.22
2024-05-09T17:17:59.601Z,101725.94
2024-05-09T17:20:32.633Z,101740.44
2024-05-09T17:23:03.505Z,101723.47
2024-05-09T17:25:33.649Z,101727.22
2024-05-09T17:28:06.265Z,101714.09
2024-05-09T17:30:36.677Z,101729.66
2024-05-09T17:33:06.736Z,101733.09
2024-05-09T17:35:33.768Z,101730.31
2024-05-09T17:38:01.698Z,101723.69
2024-05-09T17:40:33.563Z,101719.09
2024-05-09T17:43:03.509Z,101724.44
2024-05-09T17:45:30.620Z,101719.91
2024-05-09T17:47:57.814Z,101721.19
2024-05-09T17:50:31.706Z,101727.16
2024-05-09T17:53:02.585Z,101723.72
2024-05-09T17:55:29.357Z,101724.22
2024-05-09T17:57:56.951Z,101715.09
2024-05-09T18:00:34.298Z,101728.44
2024-05-09T18:03:06.484Z,101725.97
2024-05-09T18:05:38.072Z,101724.34
2024-05-09T18:08:08.445Z,101725.22
2024-05-09T18:10:40.496Z,101721.47
2024-05-09T18:13:16.417Z,101727.53
2024-05-09T18:15:43.680Z,101724.03
2024-05-09T18:18:11.562Z,101724.94
2024-05-09T18:20:43.848Z,101726.19
2024-05-09T18:23:17.831Z,101739.63
2024-05-09T18:25:46.416Z,101733.72
2024-05-09T18:28:13.754Z,101724.91
2024-05-09T18:30:41.552Z,101732.78
2024-05-09T18:33:13.102Z,101739.78
2024-05-09T18:35:44.115Z,101731.72
2024-05-09T18:38:10.893Z,101728.38
2024-05-09T18:40:38.812Z,101724.84
2024-05-09T18:43:08.583Z,101742.06
2024-05-09T18:45:41.276Z,101740.09
2024-05-09T18:48:09.853Z,101739.34
2024-05-09T18:50:40.585Z,101744.75
2024-05-09T18:53:12.816Z,101747.44
2024-05-09T18:55:41.166Z,101750.63
2024-05-09T18:58:08.445Z,101749.44
2024-05-09T19:00:38.527Z,101741.53
2024-05-09T19:03:13.284Z,101763.53
2024-05-09T19:05:45.502Z,101729.97
2024-05-09T19:08:16.309Z,101732.16
2024-05-09T19:10:46.717Z,101746.59
2024-05-09T19:13:18.490Z,101748.00
2024-05-09T19:15:47.478Z,101760.16
2024-05-09T19:18:17.396Z,101764.09
2024-05-09T19:20:58.896Z,101765.22
2024-05-09T19:23:32.543Z,101754.00
2024-05-09T19:25:59.670Z,101777.78
2024-05-09T19:28:30.583Z,101778.19
2024-05-09T19:31:05.224Z,101777.06
2024-05-09T19:33:33.593Z,101784.78
2024-05-09T19:36:01.945Z,101788.75
2024-05-09T19:38:31.431Z,101774.31
2024-05-09T19:41:15.894Z,101762.13
2024-05-09T19:43:45.785Z,101772.13
2024-05-09T19:46:14.131Z,101785.38
2024-05-09T19:48:45.664Z,101777.41
2024-05-09T19:51:14.127Z,101784.31
2024-05-09T19:53:45.564Z,101788.44
2024-05-09T19:56:12.626Z,101793.25
2024-05-09T19:58:42.434Z,101801.13
2024-05-09T20:01:12.732Z,101787.13
2024-05-09T20:03:42.586Z,101783.78
2024-05-09T20:06:14.553Z,101777.00
2024-05-09T20:08:47.293Z,101790.06
2024-05-09T20:11:20.764Z,101788.31
2024-05-09T20:13:59.144Z,101773.75
2024-05-09T20:16:29.192Z,101788.19
2024-05-09T20:18:56.480Z,101777.97
2024-05-09T20:21:24.210Z,101795.97
2024-05-09T20:23:51.206Z,101793.50
2024-05-09T20:26:30.936Z,101766.84
2024-05-09T20:31:45.170Z,101797.69
2024-05-09T20:34:29.815Z,101771.41
2024-05-09T20:37:01.057Z,101774.50
2024-05-09T20:39:35.309Z,101766.66
2024-05-09T20:42:26.736Z,101770.94
2024-05-09T20:45:20.251Z,101777.38
2024-05-09T20:47:45.473Z,101759.50
2024-05-09T20:50:29.313Z,101770.59
2024-05-09T20:53:06.122Z,101760.56
2024-05-09T20:58:40.191Z,101768.75
2024-05-09T21:01:08.607Z,101771.56
2024-05-09T21:03:38.099Z,101757.78
2024-05-09T21:06:06.486Z,101762.91
2024-05-09T21:08:33.373Z,101780.78
2024-05-09T21:11:00.367Z,101785.97
2024-05-09T21:13:27.329Z,101754.50
2024-05-09T21:15:54.117Z,101753.63
2024-05-09T21:18:20.802Z,101791.56
2024-05-09T21:20:47.511Z,101770.81
2024-05-09T21:23:14.108Z,101781.94
2024-05-09T21:25:40.702Z,101800.53
2024-05-09T21:28:07.533Z,101781.72
2024-05-09T21:30:41.271Z,101800.16
2024-05-09T21:33:11.182Z,101798.47
2024-05-09T21:35:39.576Z,101790.03
2024-05-09T21:38:07.244Z,101788.50
2024-05-09T21:40:36.028Z,101792.13
2024-05-09T21:43:07.749Z,101790.75
2024-05-09T21:45:35.661Z,101795.97
2024-05-09T21:48:03.730Z,101778.75
2024-05-09T21:50:37.036Z,101788.63
2024-05-09T21:53:07.588Z,101782.81
2024-05-09T21:55:34.424Z,101799.28
2024-05-09T21:58:01.296Z,101781.00
2024-05-09T22:00:35.513Z,101785.16
2024-05-09T22:03:06.199Z,101786.28
2024-05-09T22:05:33.443Z,101783.59
2024-05-09T22:08:00.566Z,101775.91
2024-05-09T22:10:33.354Z,101782.34
2024-05-09T22:13:02.406Z,101778.16
2024-05-09T22:15:29.206Z,101769.13
2024-05-09T22:17:57.160Z,101793.72
2024-05-09T22:20:33.101Z,101785.97
2024-05-09T22:23:04.369Z,101779.88
2024-05-09T22:25:32.179Z,101778.06
2024-05-09T22:28:02.959Z,101777.75
2024-05-09T22:32:59.496Z,101784.91
2024-05-09T22:35:26.023Z,101794.19
2024-05-09T22:37:52.571Z,101784.31
2024-05-09T22:40:28.361Z,101781.72
2024-05-09T22:43:04.809Z,101786.13
2024-05-09T22:45:31.476Z,101778.41
2024-05-09T22:47:58.284Z,101782.50
2024-05-09T22:50:27.068Z,101786.59
2024-05-09T22:52:58.944Z,101792.44
2024-05-09T22:55:25.532Z,101786.09
2024-05-09T22:57:52.294Z,101785.16
2024-05-09T23:00:22.043Z,101786.38
2024-05-09T23:02:55.302Z,101785.66
2024-05-09T23:05:22.116Z,101782.19
2024-05-09T23:07:48.794Z,101776.22
2024-05-09T23:10:25.183Z,101772.19
2024-05-09T23:12:58.688Z,101773.91
2024-05-09T23:15:25.419Z,101785.44
2024-05-09T23:17:52.220Z,101773.09
2024-05-09T23:20:29.666Z,101780.75
2024-05-09T23:23:03.240Z,101778.34
2024-05-09T23:25:29.838Z,101775.56
2024-05-09T23:27:56.665Z,101776.53
2024-05-09T23:30:33.152Z,101764.88
2024-05-09T23:33:05.229Z,101776.31
2024-05-09T23:35:32.000Z,101767.84
2024-05-09T23:37:58.575Z,101774.25
2024-05-09T23:40:37.054Z,101771.09
2024-05-09T23:43:07.218Z,101765.53
2024-05-09T23:45:34.314Z,101757.75
2024-05-09T23:48:01.571Z,101770.47
2024-05-09T23:50:34.574Z,101767.78
2024-05-09T23:53:05.120Z,101770.97
2024-05-09T23:55:32.210Z,101770.31
2024-05-09T23:57:59.351Z,101771.06
